Bernardston, Massachusetts
Current Conditions -  °F | °C
As of 8:40 AM on Friday 24 Oct 2014 (Local Time) from KORE Reporting Station
Light Rain Light Rain  
Wind Chill: 39°   Ceiling: 9500
Heat Index: 45°   Visibility: 10mi
Dew Point: 42°   Wind: 13mph
Humidity: 90%   Direction: 320°NW
Pressure: 29.75"   Gusts: NA
Location:  42.67°N, 72.55°W
Report Text: KORE 241240Z AUTO 32011KT 10SM -RA SCT022 SCT060 OVC095 07/06 A2975 RMK AO2 P0000 T00720056
Loading
Personal Weather Stations






























Interactive Weather Map
Tropical Storm Tracking
New forecast layout! Learn more

10-Day Weather Forecast

Advertisements
Track Severe Weather on mobile